RJFA(METAR)
05/30 17:00
METAR RJFA 300800Z 09009KT 9999 FEW030 BKN230 25/12 Q1015 RMK 1CU030
A2997=
戻る
トップページへ戻る
IMOC Co,.Ltd.